Williston, North Dakota
Current Conditions -  °F | °C
As of 5:52 PM on Sunday 23 Nov 2014 (Local Time) from KISN Reporting Station
Overcast Overcast  
Wind Chill:   Ceiling: 5500
Heat Index: 20°   Visibility: 10mi
Dew Point: 13°   Wind: 16mph
Humidity: 74%   Direction: 320°NW
Pressure: 29.8"   Gusts: 23mph
Location:  48.15°N, 103.62°W
Report Text: KISN 232352Z AUTO 32014G20KT 10SM OVC055 M07/M11 A2980 RMK AO2 SLP122 60000 T10671106 11056 21078 51012
Loading
Personal Weather Stations






























Interactive Weather Map New forecast layout! Learn more

10-Day Weather Forecast

Advertisements
Track Severe Weather on mobile